• Join FlightAware (Why Join?)
  • Login
  • US Flag 
08:47PM EDT


 

Airport Tracker/Info


-or-


 

Live Flight TrackerFlight Track Log ✈ AAL1260 ✈ 19-Feb-2014 ✈ KDFW - KSTL

Flight Track Log - Related Links

Times and Time Zones

All times are in EST time to prevent confusion due to time zone crossing. See the AAL1260 flight status page for this flight to view local times or setup timezone preferences in your user account.

Time Position Orientation Groundspeed Altitude Reporting Facility
EST Latitude Longitude Course Direction KTS MPH feet Rate Location/Type
10:46PM 32.8833 -97.0333 164° South 158 182 1,700  Level Dallas / Fort Worth TRACON
10:47PM 32.8333 -97.0167 164° South 208 239 4,200 2,220 Climbing Dallas / Fort Worth TRACON
10:48PM 32.7667 -96.9667 148° Southeast 299 344 6,600 2,640 Climbing Dallas / Fort Worth TRACON
10:49PM 32.7667 -96.8500 90° East 327 376 9,800 2,340 Climbing Dallas / Fort Worth TRACON
10:51PM 32.9317 -96.8072 12° North 350 403 14,000 2,340 Climbing Fort Worth Center
10:52PM 33.0403 -96.8094 359° North 383 441 16,900 2,400 Climbing Fort Worth Center
10:53PM 33.1494 -96.8128 359° North 390 449 19,000 2,280 Climbing Fort Worth Center
10:54PM 33.2739 -96.8167 359° North 413 475 21,600 2,160 Climbing Fort Worth Center
10:55PM 33.3883 -96.8206 358° North 412 474 23,500 1,620 Climbing Fort Worth Center
10:56PM 33.4906 -96.7978 11° North 442 509 25,000 1,260 Climbing Fort Worth Center
10:57PM 33.6058 -96.7247 28° Northeast 469 540 26,100 1,200 Climbing Fort Worth Center
10:58PM 33.7464 -96.6331 28° Northeast 478 550 27,500 1,080 Climbing Fort Worth Center
10:59PM 33.8664 -96.5561 28° Northeast 488 562 28,400 960 Climbing Fort Worth Center
11:00PM 33.9892 -96.4758 28° Northeast 498 573 29,500 1,320 Climbing Fort Worth Center
11:01PM 34.1111 -96.3911 30° Northeast 505 581 31,100 1,380 Climbing Fort Worth Center
11:02PM 34.2331 -96.2894 35° Northeast 502 578 32,400 840 Climbing Fort Worth Center
11:03PM 34.3486 -96.1950 34° Northeast 505 581 32,900 240 Climbing Fort Worth Center
11:04PM 34.4658 -96.0992 34° Northeast 509 586 33,000  Climbing Fort Worth Center
11:05PM 34.5822 -96.0036 34° Northeast 507 583 33,000  Level Fort Worth Center
11:06PM 34.6950 -95.9094 34° Northeast 499 574 33,100  Climbing Fort Worth Center
11:07PM 34.8119 -95.8119 34° Northeast 510 587 33,000 -60 Descending Fort Worth Center
11:08PM 34.9192 -95.7194 35° Northeast 506 582 33,000 -60 Level Fort Worth Center
11:09PM 35.0519 -95.5922 38° Northeast 505 581 32,900 -60 Descending Fort Worth Center
11:10PM 35.1633 -95.4872 38° Northeast 506 582 32,900  Level Fort Worth Center
11:11PM 35.2769 -95.3806 37° Northeast 512 589 33,000 60 Climbing Fort Worth Center
11:12PM 35.3661 -95.2931 39° Northeast 514 592 33,100  Climbing Memphis Center
11:13PM 35.4792 -95.1864 38° Northeast 513 590 33,100 -60 Level Memphis Center
11:14PM 35.5906 -95.0800 38° Northeast 511 588 33,000 -60 Descending Memphis Center
11:15PM 35.7022 -94.9717 38° Northeast 510 587 33,000  Level Kansas City Center
11:16PM 35.8139 -94.8650 38° Northeast 509 586 33,000  Level Kansas City Center
11:17PM 35.9244 -94.7569 38° Northeast 510 587 33,000  Level Kansas City Center
11:18PM 36.0353 -94.6494 38° Northeast 510 587 33,000 -60 Level Kansas City Center
11:19PM 36.1461 -94.5422 38° Northeast 509 586 32,900  Descending Kansas City Center
11:20PM 36.2567 -94.4328 39° Northeast 510 587 33,000  Climbing Kansas City Center
11:21PM 36.3672 -94.3242 38° Northeast 509 586 33,000  Level Kansas City Center
11:22PM 36.4789 -94.2156 38° Northeast 510 587 33,000  Level Kansas City Center
11:23PM 36.5897 -94.1058 38° Northeast 510 587 33,000  Level Kansas City Center
11:24PM 36.7011 -93.9958 38° Northeast 510 587 33,100  Climbing Kansas City Center
11:25PM 36.8325 -93.8639 39° Northeast 508 585 33,000  Descending Kansas City Center
11:26PM 36.9342 -93.7631 38° Northeast 503 579 33,100 -60 Climbing Kansas City Center
11:27PM 37.0425 -93.6525 39° Northeast 501 577 32,900 -120 Descending Kansas City Center
11:28PM 37.1506 -93.5431 39° Northeast 499 574 32,900  Level Kansas City Center
11:29PM 37.2550 -93.4258 42° Northeast 502 578 32,900  Level Kansas City Center
11:30PM 37.3444 -93.2833 52° Northeast 515 593 33,000  Climbing Kansas City Center
11:31PM 37.4364 -93.1431 50° Northeast 518 596 33,000  Level Kansas City Center
11:32PM 37.5308 -93.0022 50° Northeast 521 600 33,100  Climbing Kansas City Center
11:33PM 37.6256 -92.8600 50° Northeast 526 605 33,100  Level Kansas City Center
11:34PM 37.7114 -92.7239 51° Northeast 529 609 33,100 -120 Level Kansas City Center
11:35PM 37.8239 -92.5567 50° Northeast 524 603 32,900 -1,080 Descending Kansas City Center
11:36PM 37.9161 -92.4161 50° Northeast 520 598 31,000 -2,160 Descending Kansas City Center
11:37PM 38.0078 -92.2753 50° Northeast 520 598 28,600 -2,340 Descending Kansas City Center
11:39PM 38.0936 -92.1428 51° Northeast 496 571 26,200 -2,280 Descending Kansas City Center
11:40PM 38.1767 -92.0133 51° Northeast 484 557 23,900 -2,340 Descending Kansas City Center
11:41PM 38.2586 -91.8872 50° Northeast 472 543 21,500 -2,220 Descending Kansas City Center
11:42PM 38.3364 -91.7658 51° Northeast 457 526 19,500 -2,040 Descending Kansas City Center
11:43PM 38.4019 -91.6436 56° Northeast 437 503 17,400 -2,100 Descending Kansas City Center
11:44PM 38.4447 -91.5078 68° East 421 484 15,400 -2,040 Descending Kansas City Center
11:45PM 38.4744 -91.3756 74° East 405 466 13,400 -1,980 Descending Kansas City Center
11:46PM 38.5256 -91.2567 61° Northeast 398 458 11,400 -1,260 Descending Kansas City Center
11:47PM 38.5928 -91.1569 49° Northeast 382 440 10,900 -660 Descending Kansas City Center
11:48PM 38.6358 -91.0447 64° Northeast 361 415 10,100 -960 Descending Kansas City Center
11:49PM 38.6797 -90.9422 61° Northeast 338 389 9,000 -1,380 Descending Kansas City Center
11:50PM 38.7242 -90.8461 59° Northeast 322 371 7,400 -1,560 Descending Kansas City Center
11:51PM 38.7675 -90.7497 60° Northeast 314 361 5,900 -1,200 Descending Kansas City Center
11:52PM 38.8078 -90.6597 60° Northeast 302 348 5,000 -1,200 Descending Kansas City Center
11:53PM 38.8419 -90.5797 61° Northeast 273 314 3,600 -1,080 Descending Kansas City Center
11:54PM 38.8194 -90.5122 113° Southeast 201 231 2,900 -720 Descending Kansas City Center
11:55PM 38.7961 -90.4661 123° Southeast 171 197 2,200 -720 Descending Kansas City Center
11:56PM 38.7775 -90.4281 122° Southeast 146 168 1,500 -660 Descending Kansas City Center
11:57PM 38.7614 -90.3939 121° Southeast 123 142 900 -480 Descending Kansas City Center
11:58PM 38.7447 -90.3594 122° Southeast 121 139 600 -300 Descending Kansas City Center
12:00AM 38.7333 -90.3667 90° East  Level FlightAware Approximate